<?xml version="1.0" encoding="UTF-8" standalone="no" ?>
<gpx xmlns="http://www.topografix.com/GPX/1/1" xmlns:xsi="http://www.w3.org/2001/XMLSchema-instance" xsi:schemaLocation="http://www.topografix.com/GPX/1/1 http://www.topografix.com/GPX/1/1/gpx.xsd" version="1.1" creator="VisuGPX - https://www.visugpx.com">
  <metadata>
    <name>Veigy Christian rando 01</name>
    <desc><![CDATA[Veigy Christian rando 01]]></desc>
  </metadata>
  <trk>
    <name><![CDATA[Veigy Christian rando 01_2]]></name>
    <trkseg>
      <trkpt lat="46.26885" lon="6.25812">
        <ele>430</ele>
        <time>2022-10-04T14:00:58Z</time>
      </trkpt>
      <trkpt lat="46.26864" lon="6.25801">
        <ele>430</ele>
        <time>2022-10-04T14:01:02Z</time>
      </trkpt>
      <trkpt lat="46.26859" lon="6.25797">
        <ele>430</ele>
        <time>2022-10-04T14:01:03Z</time>
      </trkpt>
      <trkpt lat="46.26851" lon="6.25783">
        <ele>430</ele>
        <time>2022-10-04T14:01:05Z</time>
      </trkpt>
      <trkpt lat="46.26848" lon="6.25753">
        <ele>429</ele>
        <time>2022-10-04T14:01:09Z</time>
      </trkpt>
      <trkpt lat="46.26841" lon="6.25748">
        <ele>429</ele>
        <time>2022-10-04T14:01:11Z</time>
      </trkpt>
      <trkpt lat="46.26832" lon="6.25749">
        <ele>429</ele>
        <time>2022-10-04T14:01:13Z</time>
      </trkpt>
      <trkpt lat="46.26833" lon="6.25762">
        <ele>428</ele>
        <time>2022-10-04T14:01:37Z</time>
      </trkpt>
      <trkpt lat="46.2683" lon="6.25778">
        <ele>428</ele>
        <time>2022-10-04T14:01:42Z</time>
      </trkpt>
      <trkpt lat="46.26826" lon="6.25793">
        <ele>428</ele>
        <time>2022-10-04T14:01:46Z</time>
      </trkpt>
      <trkpt lat="46.26824" lon="6.25798">
        <ele>428</ele>
        <time>2022-10-04T14:01:48Z</time>
      </trkpt>
      <trkpt lat="46.26812" lon="6.25795">
        <ele>428</ele>
        <time>2022-10-04T14:01:52Z</time>
      </trkpt>
      <trkpt lat="46.26807" lon="6.25784">
        <ele>428</ele>
        <time>2022-10-04T14:02:13Z</time>
      </trkpt>
      <trkpt lat="46.26809" lon="6.25773">
        <ele>427</ele>
        <time>2022-10-04T14:06:05Z</time>
      </trkpt>
      <trkpt lat="46.26815" lon="6.25775">
        <ele>428</ele>
        <time>2022-10-04T15:22:29Z</time>
      </trkpt>
      <trkpt lat="46.26801" lon="6.25791">
        <ele>427</ele>
        <time>2022-10-04T15:22:54Z</time>
      </trkpt>
      <trkpt lat="46.26875" lon="6.25814">
        <ele>427</ele>
        <time>2022-10-04T15:23:21Z</time>
      </trkpt>
      <trkpt lat="46.26819" lon="6.25778">
        <ele>428</ele>
        <time>2022-10-04T15:23:41Z</time>
      </trkpt>
      <trkpt lat="46.26808" lon="6.25775">
        <ele>428</ele>
        <time>2022-10-04T15:23:48Z</time>
      </trkpt>
      <trkpt lat="46.2681" lon="6.25771">
        <ele>429</ele>
        <time>2022-10-04T15:25:18Z</time>
      </trkpt>
      <trkpt lat="46.26824" lon="6.25782">
        <ele>431</ele>
        <time>2022-10-04T15:29:35Z</time>
      </trkpt>
      <trkpt lat="46.2683" lon="6.2578">
        <ele>431</ele>
        <time>2022-10-04T15:29:49Z</time>
      </trkpt>
      <trkpt lat="46.26827" lon="6.25775">
        <ele>431</ele>
        <time>2022-10-04T15:30:24Z</time>
      </trkpt>
      <trkpt lat="46.26837" lon="6.25763">
        <ele>430</ele>
        <time>2022-10-04T15:34:44Z</time>
      </trkpt>
      <trkpt lat="46.26843" lon="6.2575">
        <ele>430</ele>
        <time>2022-10-04T15:35:13Z</time>
      </trkpt>
      <trkpt lat="46.26847" lon="6.2574">
        <ele>430</ele>
        <time>2022-10-04T15:35:29Z</time>
      </trkpt>
      <trkpt lat="46.26844" lon="6.25736">
        <ele>430</ele>
        <time>2022-10-04T15:35:33Z</time>
      </trkpt>
      <trkpt lat="46.26843" lon="6.25727">
        <ele>430</ele>
        <time>2022-10-04T15:37:54Z</time>
      </trkpt>
      <trkpt lat="46.2683" lon="6.2568">
        <ele>430</ele>
        <time>2022-10-04T15:38:02Z</time>
      </trkpt>
      <trkpt lat="46.2683" lon="6.25654">
        <ele>430</ele>
        <time>2022-10-04T15:38:05Z</time>
      </trkpt>
      <trkpt lat="46.26831" lon="6.25645">
        <ele>431</ele>
        <time>2022-10-04T15:38:06Z</time>
      </trkpt>
      <trkpt lat="46.26844" lon="6.25605">
        <ele>431</ele>
        <time>2022-10-04T15:38:10Z</time>
      </trkpt>
      <trkpt lat="46.26844" lon="6.25597">
        <ele>431</ele>
        <time>2022-10-04T15:38:11Z</time>
      </trkpt>
      <trkpt lat="46.26848" lon="6.2558">
        <ele>431</ele>
        <time>2022-10-04T15:38:14Z</time>
      </trkpt>
      <trkpt lat="46.26848" lon="6.2557">
        <ele>430</ele>
        <time>2022-10-04T15:38:29Z</time>
      </trkpt>
      <trkpt lat="46.268" lon="6.25543">
        <ele>432</ele>
        <time>2022-10-04T15:38:33Z</time>
      </trkpt>
      <trkpt lat="46.26791" lon="6.25535">
        <ele>432</ele>
        <time>2022-10-04T15:38:34Z</time>
      </trkpt>
      <trkpt lat="46.26785" lon="6.25526">
        <ele>431</ele>
        <time>2022-10-04T15:38:35Z</time>
      </trkpt>
      <trkpt lat="46.26776" lon="6.25516">
        <ele>431</ele>
        <time>2022-10-04T15:38:36Z</time>
      </trkpt>
      <trkpt lat="46.26751" lon="6.25469">
        <ele>427</ele>
        <time>2022-10-04T15:38:40Z</time>
      </trkpt>
      <trkpt lat="46.26724" lon="6.25423">
        <ele>428</ele>
        <time>2022-10-04T15:38:45Z</time>
      </trkpt>
      <trkpt lat="46.2664" lon="6.25348">
        <ele>431</ele>
        <time>2022-10-04T15:38:56Z</time>
      </trkpt>
      <trkpt lat="46.26636" lon="6.25345">
        <ele>430</ele>
        <time>2022-10-04T15:38:58Z</time>
      </trkpt>
      <trkpt lat="46.2658" lon="6.25553">
        <ele>430</ele>
        <time>2022-10-04T15:39:17Z</time>
      </trkpt>
      <trkpt lat="46.26571" lon="6.25563">
        <ele>430</ele>
        <time>2022-10-04T15:39:19Z</time>
      </trkpt>
      <trkpt lat="46.26562" lon="6.25567">
        <ele>431</ele>
        <time>2022-10-04T15:39:22Z</time>
      </trkpt>
      <trkpt lat="46.26536" lon="6.25559">
        <ele>431</ele>
        <time>2022-10-04T15:39:26Z</time>
      </trkpt>
      <trkpt lat="46.2653" lon="6.25563">
        <ele>431</ele>
        <time>2022-10-04T15:39:28Z</time>
      </trkpt>
      <trkpt lat="46.26499" lon="6.25741">
        <ele>433</ele>
        <time>2022-10-04T15:39:49Z</time>
      </trkpt>
      <trkpt lat="46.26494" lon="6.2575">
        <ele>433</ele>
        <time>2022-10-04T15:39:52Z</time>
      </trkpt>
      <trkpt lat="46.2638" lon="6.25681">
        <ele>435</ele>
        <time>2022-10-04T15:40:08Z</time>
      </trkpt>
      <trkpt lat="46.26332" lon="6.25662">
        <ele>434</ele>
        <time>2022-10-04T15:40:20Z</time>
      </trkpt>
      <trkpt lat="46.26248" lon="6.25699">
        <ele>436</ele>
        <time>2022-10-04T15:40:32Z</time>
      </trkpt>
      <trkpt lat="46.26226" lon="6.2573">
        <ele>436</ele>
        <time>2022-10-04T15:40:35Z</time>
      </trkpt>
      <trkpt lat="46.26057" lon="6.26041">
        <ele>443</ele>
        <time>2022-10-04T15:41:06Z</time>
      </trkpt>
      <trkpt lat="46.25976" lon="6.26287">
        <ele>444</ele>
        <time>2022-10-04T15:41:26Z</time>
      </trkpt>
      <trkpt lat="46.25912" lon="6.26402">
        <ele>446</ele>
        <time>2022-10-04T15:41:38Z</time>
      </trkpt>
      <trkpt lat="46.25873" lon="6.26405">
        <ele>447</ele>
        <time>2022-10-04T15:41:43Z</time>
      </trkpt>
      <trkpt lat="46.25761" lon="6.26378">
        <ele>449</ele>
        <time>2022-10-04T15:41:56Z</time>
      </trkpt>
      <trkpt lat="46.25501" lon="6.26182">
        <ele>451</ele>
        <time>2022-10-04T15:42:27Z</time>
      </trkpt>
      <trkpt lat="46.25247" lon="6.26067">
        <ele>455</ele>
        <time>2022-10-04T15:42:58Z</time>
      </trkpt>
      <trkpt lat="46.25182" lon="6.26014">
        <ele>456</ele>
        <time>2022-10-04T15:43:11Z</time>
      </trkpt>
      <trkpt lat="46.25158" lon="6.26011">
        <ele>456</ele>
        <time>2022-10-04T15:43:16Z</time>
      </trkpt>
      <trkpt lat="46.24756" lon="6.25757">
        <ele>461</ele>
        <time>2022-10-04T15:43:47Z</time>
      </trkpt>
      <trkpt lat="46.24741" lon="6.25751">
        <ele>461</ele>
        <time>2022-10-04T15:43:49Z</time>
      </trkpt>
      <trkpt lat="46.2473" lon="6.2576">
        <ele>461</ele>
        <time>2022-10-04T15:43:56Z</time>
      </trkpt>
      <trkpt lat="46.24643" lon="6.26144">
        <ele>458</ele>
        <time>2022-10-04T15:44:18Z</time>
      </trkpt>
      <trkpt lat="46.24226" lon="6.2587">
        <ele>458</ele>
        <time>2022-10-04T15:44:48Z</time>
      </trkpt>
      <trkpt lat="46.24066" lon="6.25765">
        <ele>462</ele>
        <time>2022-10-04T15:45:01Z</time>
      </trkpt>
      <trkpt lat="46.24071" lon="6.25748">
        <ele>462</ele>
        <time>2022-10-04T15:45:05Z</time>
      </trkpt>
      <trkpt lat="46.24142" lon="6.25627">
        <ele>464</ele>
        <time>2022-10-04T15:45:15Z</time>
      </trkpt>
      <trkpt lat="46.2415" lon="6.25602">
        <ele>463</ele>
        <time>2022-10-04T15:45:17Z</time>
      </trkpt>
      <trkpt lat="46.2415" lon="6.2559">
        <ele>463</ele>
        <time>2022-10-04T15:45:18Z</time>
      </trkpt>
      <trkpt lat="46.24124" lon="6.25497">
        <ele>462</ele>
        <time>2022-10-04T15:45:23Z</time>
      </trkpt>
      <trkpt lat="46.24117" lon="6.25479">
        <ele>462</ele>
        <time>2022-10-04T15:45:24Z</time>
      </trkpt>
      <trkpt lat="46.24096" lon="6.25454">
        <ele>462</ele>
        <time>2022-10-04T15:45:26Z</time>
      </trkpt>
      <trkpt lat="46.2399" lon="6.25396">
        <ele>463</ele>
        <time>2022-10-04T15:45:37Z</time>
      </trkpt>
      <trkpt lat="46.23941" lon="6.2535">
        <ele>461</ele>
        <time>2022-10-04T15:45:43Z</time>
      </trkpt>
      <trkpt lat="46.23807" lon="6.25306">
        <ele>455</ele>
        <time>2022-10-04T15:45:54Z</time>
      </trkpt>
      <trkpt lat="46.23789" lon="6.253">
        <ele>453</ele>
        <time>2022-10-04T15:46:01Z</time>
      </trkpt>
      <trkpt lat="46.23406" lon="6.25093">
        <ele>447</ele>
        <time>2022-10-04T15:46:29Z</time>
      </trkpt>
      <trkpt lat="46.23396" lon="6.25083">
        <ele>445</ele>
        <time>2022-10-04T15:46:31Z</time>
      </trkpt>
      <trkpt lat="46.23386" lon="6.2507">
        <ele>444</ele>
        <time>2022-10-04T15:46:33Z</time>
      </trkpt>
      <trkpt lat="46.23375" lon="6.25071">
        <ele>444</ele>
        <time>2022-10-04T15:46:35Z</time>
      </trkpt>
      <trkpt lat="46.22906" lon="6.24779">
        <ele>444</ele>
        <time>2022-10-04T15:47:06Z</time>
      </trkpt>
      <trkpt lat="46.22723" lon="6.24671">
        <ele>439</ele>
        <time>2022-10-04T15:47:24Z</time>
      </trkpt>
      <trkpt lat="46.22712" lon="6.2466">
        <ele>439</ele>
        <time>2022-10-04T15:47:27Z</time>
      </trkpt>
      <trkpt lat="46.22703" lon="6.24649">
        <ele>439</ele>
        <time>2022-10-04T15:47:29Z</time>
      </trkpt>
      <trkpt lat="46.22693" lon="6.24653">
        <ele>439</ele>
        <time>2022-10-04T15:47:30Z</time>
      </trkpt>
      <trkpt lat="46.22305" lon="6.24399">
        <ele>437</ele>
        <time>2022-10-04T15:48:01Z</time>
      </trkpt>
      <trkpt lat="46.22184" lon="6.24275">
        <ele>434</ele>
        <time>2022-10-04T15:48:11Z</time>
      </trkpt>
      <trkpt lat="46.21981" lon="6.23948">
        <ele>430</ele>
        <time>2022-10-04T15:48:37Z</time>
      </trkpt>
      <trkpt lat="46.21814" lon="6.23808">
        <ele>430</ele>
        <time>2022-10-04T15:48:53Z</time>
      </trkpt>
      <trkpt lat="46.21663" lon="6.23695">
        <ele>430</ele>
        <time>2022-10-04T15:49:06Z</time>
      </trkpt>
      <trkpt lat="46.21557" lon="6.23568">
        <ele>429</ele>
        <time>2022-10-04T15:49:16Z</time>
      </trkpt>
      <trkpt lat="46.21484" lon="6.23427">
        <ele>428</ele>
        <time>2022-10-04T15:49:27Z</time>
      </trkpt>
      <trkpt lat="46.21481" lon="6.23413">
        <ele>427</ele>
        <time>2022-10-04T15:49:29Z</time>
      </trkpt>
      <trkpt lat="46.21475" lon="6.23395">
        <ele>427</ele>
        <time>2022-10-04T15:49:31Z</time>
      </trkpt>
      <trkpt lat="46.21464" lon="6.23384">
        <ele>427</ele>
        <time>2022-10-04T15:49:33Z</time>
      </trkpt>
      <trkpt lat="46.21278" lon="6.23006">
        <ele>429</ele>
        <time>2022-10-04T15:49:55Z</time>
      </trkpt>
      <trkpt lat="46.21178" lon="6.22879">
        <ele>428</ele>
        <time>2022-10-04T15:50:06Z</time>
      </trkpt>
      <trkpt lat="46.21172" lon="6.22862">
        <ele>427</ele>
        <time>2022-10-04T15:50:08Z</time>
      </trkpt>
      <trkpt lat="46.21166" lon="6.22852">
        <ele>427</ele>
        <time>2022-10-04T15:50:10Z</time>
      </trkpt>
      <trkpt lat="46.21156" lon="6.22851">
        <ele>427</ele>
        <time>2022-10-04T15:50:12Z</time>
      </trkpt>
      <trkpt lat="46.20998" lon="6.22729">
        <ele>430</ele>
        <time>2022-10-04T15:50:26Z</time>
      </trkpt>
      <trkpt lat="46.20616" lon="6.22545">
        <ele>429</ele>
        <time>2022-10-04T15:50:57Z</time>
      </trkpt>
      <trkpt lat="46.20522" lon="6.22477">
        <ele>429</ele>
        <time>2022-10-04T15:51:09Z</time>
      </trkpt>
      <trkpt lat="46.20463" lon="6.22411">
        <ele>429</ele>
        <time>2022-10-04T15:51:16Z</time>
      </trkpt>
      <trkpt lat="46.20413" lon="6.22324">
        <ele>428</ele>
        <time>2022-10-04T15:51:28Z</time>
      </trkpt>
      <trkpt lat="46.20406" lon="6.22315">
        <ele>428</ele>
        <time>2022-10-04T15:51:33Z</time>
      </trkpt>
      <trkpt lat="46.204" lon="6.22294">
        <ele>428</ele>
        <time>2022-10-04T15:52:24Z</time>
      </trkpt>
      <trkpt lat="46.20396" lon="6.22281">
        <ele>428</ele>
        <time>2022-10-04T15:52:26Z</time>
      </trkpt>
      <trkpt lat="46.20393" lon="6.22259">
        <ele>428</ele>
        <time>2022-10-04T15:52:28Z</time>
      </trkpt>
      <trkpt lat="46.20377" lon="6.22254">
        <ele>428</ele>
        <time>2022-10-04T15:52:30Z</time>
      </trkpt>
      <trkpt lat="46.20363" lon="6.22291">
        <ele>428</ele>
        <time>2022-10-04T15:52:32Z</time>
      </trkpt>
      <trkpt lat="46.2013" lon="6.22458">
        <ele>429</ele>
        <time>2022-10-04T15:53:04Z</time>
      </trkpt>
      <trkpt lat="46.20007" lon="6.22544">
        <ele>429</ele>
        <time>2022-10-04T15:53:26Z</time>
      </trkpt>
      <trkpt lat="46.19988" lon="6.22549">
        <ele>429</ele>
        <time>2022-10-04T15:53:31Z</time>
      </trkpt>
      <trkpt lat="46.1997" lon="6.22569">
        <ele>429</ele>
        <time>2022-10-04T15:53:48Z</time>
      </trkpt>
      <trkpt lat="46.19961" lon="6.22571">
        <ele>428</ele>
        <time>2022-10-04T15:53:50Z</time>
      </trkpt>
      <trkpt lat="46.19948" lon="6.22567">
        <ele>428</ele>
        <time>2022-10-04T15:53:53Z</time>
      </trkpt>
      <trkpt lat="46.19942" lon="6.22549">
        <ele>428</ele>
        <time>2022-10-04T15:53:55Z</time>
      </trkpt>
      <trkpt lat="46.19905" lon="6.22278">
        <ele>427</ele>
        <time>2022-10-04T15:54:18Z</time>
      </trkpt>
      <trkpt lat="46.19899" lon="6.22248">
        <ele>426</ele>
        <time>2022-10-04T15:54:22Z</time>
      </trkpt>
      <trkpt lat="46.19892" lon="6.22238">
        <ele>426</ele>
        <time>2022-10-04T15:54:24Z</time>
      </trkpt>
      <trkpt lat="46.1988" lon="6.22233">
        <ele>427</ele>
        <time>2022-10-04T15:54:26Z</time>
      </trkpt>
      <trkpt lat="46.19858" lon="6.22239">
        <ele>427</ele>
        <time>2022-10-04T15:54:30Z</time>
      </trkpt>
      <trkpt lat="46.1978" lon="6.2227">
        <ele>427</ele>
        <time>2022-10-04T15:54:43Z</time>
      </trkpt>
      <trkpt lat="46.19772" lon="6.22251">
        <ele>427</ele>
        <time>2022-10-04T15:54:46Z</time>
      </trkpt>
      <trkpt lat="46.19716" lon="6.2203">
        <ele>426</ele>
        <time>2022-10-04T15:55:06Z</time>
      </trkpt>
      <trkpt lat="46.19645" lon="6.21945">
        <ele>425</ele>
        <time>2022-10-04T15:55:20Z</time>
      </trkpt>
      <trkpt lat="46.19638" lon="6.21931">
        <ele>424</ele>
        <time>2022-10-04T15:55:23Z</time>
      </trkpt>
      <trkpt lat="46.19525" lon="6.21813">
        <ele>421</ele>
        <time>2022-10-04T15:55:42Z</time>
      </trkpt>
      <trkpt lat="46.19518" lon="6.21801">
        <ele>421</ele>
        <time>2022-10-04T15:55:44Z</time>
      </trkpt>
      <trkpt lat="46.19505" lon="6.21798">
        <ele>421</ele>
        <time>2022-10-04T15:56:40Z</time>
      </trkpt>
      <trkpt lat="46.19383" lon="6.21655">
        <ele>421</ele>
        <time>2022-10-04T15:56:59Z</time>
      </trkpt>
      <trkpt lat="46.1938" lon="6.21647">
        <ele>421</ele>
        <time>2022-10-04T15:57:00Z</time>
      </trkpt>
      <trkpt lat="46.19372" lon="6.21607">
        <ele>421</ele>
        <time>2022-10-04T15:57:04Z</time>
      </trkpt>
      <trkpt lat="46.19367" lon="6.21558">
        <ele>421</ele>
        <time>2022-10-04T15:57:08Z</time>
      </trkpt>
      <trkpt lat="46.19371" lon="6.21522">
        <ele>420</ele>
        <time>2022-10-04T15:57:12Z</time>
      </trkpt>
      <trkpt lat="46.19372" lon="6.2151">
        <ele>420</ele>
        <time>2022-10-04T15:57:14Z</time>
      </trkpt>
      <trkpt lat="46.1937" lon="6.21503">
        <ele>420</ele>
        <time>2022-10-04T15:57:15Z</time>
      </trkpt>
      <trkpt lat="46.19366" lon="6.21498">
        <ele>420</ele>
        <time>2022-10-04T15:57:16Z</time>
      </trkpt>
      <trkpt lat="46.19359" lon="6.21498">
        <ele>420</ele>
        <time>2022-10-04T15:57:20Z</time>
      </trkpt>
      <trkpt lat="46.19354" lon="6.21496">
        <ele>420</ele>
        <time>2022-10-04T15:57:26Z</time>
      </trkpt>
      <trkpt lat="46.19324" lon="6.21494">
        <ele>421</ele>
        <time>2022-10-04T15:57:31Z</time>
      </trkpt>
      <trkpt lat="46.19315" lon="6.21496">
        <ele>421</ele>
        <time>2022-10-04T15:57:33Z</time>
      </trkpt>
      <trkpt lat="46.19273" lon="6.21572">
        <ele>421</ele>
        <time>2022-10-04T15:57:50Z</time>
      </trkpt>
      <trkpt lat="46.19267" lon="6.21575">
        <ele>421</ele>
        <time>2022-10-04T15:57:52Z</time>
      </trkpt>
      <trkpt lat="46.19159" lon="6.21443">
        <ele>421</ele>
        <time>2022-10-04T15:58:14Z</time>
      </trkpt>
      <trkpt lat="46.19145" lon="6.21438">
        <ele>421</ele>
        <time>2022-10-04T15:58:35Z</time>
      </trkpt>
      <trkpt lat="46.19141" lon="6.21432">
        <ele>421</ele>
        <time>2022-10-04T15:58:37Z</time>
      </trkpt>
      <trkpt lat="46.19161" lon="6.21221">
        <ele>421</ele>
        <time>2022-10-04T15:59:50Z</time>
      </trkpt>
      <trkpt lat="46.19156" lon="6.21214">
        <ele>421</ele>
        <time>2022-10-04T15:59:51Z</time>
      </trkpt>
      <trkpt lat="46.19132" lon="6.21204">
        <ele>421</ele>
        <time>2022-10-04T15:59:54Z</time>
      </trkpt>
      <trkpt lat="46.19077" lon="6.21155">
        <ele>420</ele>
        <time>2022-10-04T16:01:24Z</time>
      </trkpt>
      <trkpt lat="46.19073" lon="6.2115">
        <ele>420</ele>
        <time>2022-10-04T16:01:35Z</time>
      </trkpt>
      <trkpt lat="46.19062" lon="6.21139">
        <ele>420</ele>
        <time>2022-10-04T16:01:39Z</time>
      </trkpt>
      <trkpt lat="46.19057" lon="6.21134">
        <ele>420</ele>
        <time>2022-10-04T16:01:43Z</time>
      </trkpt>
      <trkpt lat="46.19052" lon="6.21136">
        <ele>420</ele>
        <time>2022-10-04T16:01:45Z</time>
      </trkpt>
      <trkpt lat="46.1901" lon="6.21225">
        <ele>421</ele>
        <time>2022-10-04T16:01:55Z</time>
      </trkpt>
      <trkpt lat="46.19009" lon="6.21234">
        <ele>420</ele>
        <time>2022-10-04T16:02:04Z</time>
      </trkpt>
      <trkpt lat="46.18996" lon="6.21263">
        <ele>421</ele>
        <time>2022-10-04T16:02:12Z</time>
      </trkpt>
      <trkpt lat="46.18991" lon="6.21264">
        <ele>421</ele>
        <time>2022-10-04T16:02:20Z</time>
      </trkpt>
      <trkpt lat="46.1897" lon="6.21247">
        <ele>420</ele>
        <time>2022-10-04T16:02:25Z</time>
      </trkpt>
      <trkpt lat="46.18966" lon="6.21242">
        <ele>420</ele>
        <time>2022-10-04T16:02:26Z</time>
      </trkpt>
      <trkpt lat="46.18949" lon="6.21246">
        <ele>418</ele>
        <time>2022-10-04T16:02:30Z</time>
      </trkpt>
      <trkpt lat="46.18944" lon="6.21252">
        <ele>417</ele>
        <time>2022-10-04T16:02:35Z</time>
      </trkpt>
      <trkpt lat="46.1894" lon="6.2126">
        <ele>420</ele>
        <time>2022-10-04T16:04:19Z</time>
      </trkpt>
      <trkpt lat="46.18936" lon="6.21253">
        <ele>420</ele>
        <time>2022-10-04T16:04:27Z</time>
      </trkpt>
      <trkpt lat="46.18936" lon="6.21233">
        <ele>418</ele>
        <time>2022-10-04T16:04:30Z</time>
      </trkpt>
      <trkpt lat="46.18925" lon="6.21222">
        <ele>417</ele>
        <time>2022-10-04T16:04:34Z</time>
      </trkpt>
      <trkpt lat="46.18918" lon="6.21216">
        <ele>417</ele>
        <time>2022-10-04T16:04:37Z</time>
      </trkpt>
      <trkpt lat="46.18909" lon="6.21223">
        <ele>417</ele>
        <time>2022-10-04T16:04:44Z</time>
      </trkpt>
      <trkpt lat="46.18913" lon="6.21215">
        <ele>420</ele>
        <time>2022-10-04T16:04:59Z</time>
      </trkpt>
      <trkpt lat="46.18918" lon="6.21216">
        <ele>417</ele>
        <time>2022-10-04T16:05:27Z</time>
      </trkpt>
      <trkpt lat="46.18926" lon="6.21224">
        <ele>418</ele>
        <time>2022-10-04T16:05:31Z</time>
      </trkpt>
      <trkpt lat="46.1893" lon="6.2123">
        <ele>417</ele>
        <time>2022-10-04T16:05:34Z</time>
      </trkpt>
      <trkpt lat="46.18932" lon="6.21223">
        <ele>420</ele>
        <time>2022-10-04T16:05:48Z</time>
      </trkpt>
    </trkseg>
  </trk>
</gpx>